createdAt,value
2019-02-05T00:01:39.507Z,29.07
2019-02-05T00:04:09.337Z,25.03
2019-02-05T00:06:39.183Z,30.67
2019-02-05T00:09:10.608Z,30.20
2019-02-05T00:11:40.455Z,30.50
2019-02-05T00:14:10.398Z,31.97
2019-02-05T00:16:40.649Z,33.70
2019-02-05T00:19:10.494Z,34.83
2019-02-05T00:21:40.458Z,27.57
2019-02-05T00:24:10.243Z,34.87
2019-02-05T00:26:40.058Z,33.93
2019-02-05T00:29:09.871Z,29.33
2019-02-05T00:31:39.690Z,31.50
2019-02-05T00:34:09.501Z,33.47
2019-02-05T00:36:39.248Z,33.13
2019-02-05T00:39:09.651Z,31.20
2019-02-05T00:41:39.875Z,32.37
2019-02-05T00:44:09.668Z,23.70
2019-02-05T00:46:39.480Z,37.80
2019-02-05T00:49:09.275Z,35.47
2019-02-05T00:51:39.145Z,32.27
2019-02-05T00:54:09.013Z,37.90
2019-02-05T00:56:38.750Z,42.57
2019-02-05T00:59:08.722Z,44.77
2019-02-05T01:01:38.588Z,36.47
2019-02-05T01:04:08.443Z,43.03
2019-02-05T01:06:38.310Z,39.10
2019-02-05T01:09:09.004Z,42.83
2019-02-05T01:11:39.009Z,42.37
2019-02-05T01:14:08.866Z,36.33
2019-02-05T01:16:38.690Z,35.77
2019-02-05T01:22:40.777Z,37.17
2019-02-05T01:25:10.687Z,44.00
2019-02-05T01:27:40.505Z,42.30
2019-02-05T01:30:12.845Z,42.73
2019-02-05T01:32:42.674Z,41.57
2019-02-05T01:35:12.485Z,38.93
2019-02-05T01:37:42.422Z,44.10
2019-02-05T01:40:14.284Z,43.60
2019-02-05T01:42:44.426Z,44.23
2019-02-05T01:45:16.669Z,47.10
2019-02-05T01:47:46.444Z,41.97
2019-02-05T01:50:19.595Z,40.47
2019-02-05T01:52:49.500Z,50.50
2019-02-05T01:55:20.169Z,48.10
2019-02-05T01:57:50.060Z,53.57
2019-02-05T02:00:22.183Z,47.40
2019-02-05T02:02:52.031Z,49.10
2019-02-05T02:05:21.854Z,45.87
2019-02-05T02:07:51.819Z,47.17
2019-02-05T02:10:23.780Z,57.97
2019-02-05T02:12:53.903Z,48.30
2019-02-05T02:15:23.703Z,52.67
2019-02-05T02:17:53.541Z,60.87
2019-02-05T02:20:23.415Z,49.07
2019-02-05T02:22:53.275Z,50.73
2019-02-05T02:25:23.042Z,49.47
2019-02-05T02:27:53.201Z,44.37
2019-02-05T02:30:48.000Z,59.20
2019-02-05T02:36:59.608Z,54.03
2019-02-05T02:39:29.531Z,58.40
2019-02-05T02:41:59.401Z,56.53
2019-02-05T02:44:29.277Z,55.73
2019-02-05T02:46:59.160Z,58.50
2019-02-05T02:49:28.977Z,45.47
2019-02-05T02:51:58.817Z,53.10
2019-02-05T02:54:28.704Z,56.37
2019-02-05T02:57:04.956Z,58.03
2019-02-05T02:59:29.860Z,57.30
2019-02-05T03:01:59.849Z,52.27
2019-02-05T03:04:29.645Z,49.57
2019-02-05T03:06:59.404Z,48.93
2019-02-05T03:09:29.270Z,52.73
2019-02-05T03:11:59.064Z,50.77
2019-02-05T03:14:28.852Z,56.13
2019-02-05T03:16:58.690Z,53.53
2019-02-05T03:26:42.512Z,44.87
2019-02-05T03:29:12.334Z,61.20
2019-02-05T03:31:42.182Z,44.40
2019-02-05T03:34:12.643Z,52.60
2019-02-05T03:36:42.464Z,58.67
2019-02-05T03:39:12.460Z,62.33
2019-02-05T03:41:42.350Z,52.13
2019-02-05T03:44:12.152Z,59.40
2019-02-05T03:46:41.962Z,56.83
2019-02-05T03:49:11.830Z,77.33
2019-02-05T03:52:16.278Z,64.37
2019-02-05T03:55:18.749Z,57.67
2019-02-05T03:58:08.125Z,51.47
2019-02-05T04:01:16.289Z,64.23
2019-02-05T04:04:18.850Z,56.13
2019-02-05T04:07:25.164Z,60.87
2019-02-05T04:10:34.705Z,72.43
2019-02-05T04:13:49.562Z,61.23
2019-02-05T04:16:32.596Z,60.07
2019-02-05T04:19:24.730Z,63.93
2019-02-05T04:22:40.064Z,58.03
2019-02-05T04:25:40.535Z,64.47
2019-02-05T04:28:25.995Z,69.07
2019-02-05T04:31:42.817Z,72.90
2019-02-05T04:35:14.533Z,64.60
2019-02-05T04:38:10.778Z,43.87
2019-02-05T04:41:12.977Z,80.90
2019-02-05T04:44:02.345Z,75.07
2019-02-05T04:47:05.135Z,73.37
2019-02-05T04:53:48.735Z,80.40
2019-02-05T04:56:42.371Z,75.63
2019-02-05T04:59:44.238Z,75.63
2019-02-05T05:02:50.470Z,71.97
2019-02-05T05:05:48.736Z,72.60
2019-02-05T05:09:04.712Z,68.03
2019-02-05T05:11:34.578Z,79.00
2019-02-05T05:14:04.783Z,66.20
2019-02-05T05:16:34.563Z,84.17
2019-02-05T05:19:04.541Z,82.57
2019-02-05T05:21:34.325Z,66.73
2019-02-05T05:24:04.125Z,75.63
2019-02-05T05:26:33.934Z,66.47
2019-02-05T05:29:03.815Z,85.63
2019-02-05T05:31:33.583Z,80.80
2019-02-05T05:37:35.973Z,62.77
2019-02-05T05:40:06.598Z,77.93
2019-02-05T05:42:36.440Z,74.60
2019-02-05T05:45:09.078Z,82.07
2019-02-05T05:47:38.865Z,54.60
2019-02-05T05:50:12.683Z,99.17
2019-02-05T05:52:42.505Z,64.30
2019-02-05T05:55:12.392Z,80.37
2019-02-05T05:57:41.937Z,65.83
2019-02-05T06:00:16.079Z,71.87
2019-02-05T06:02:45.647Z,75.50
2019-02-05T06:05:17.043Z,81.20
2019-02-05T06:07:46.827Z,80.73
2019-02-05T06:10:17.276Z,65.33
2019-02-05T06:12:47.007Z,78.03
2019-02-05T06:15:16.837Z,78.43
2019-02-05T06:17:46.484Z,69.20
2019-02-05T06:20:17.385Z,93.40
2019-02-05T06:22:47.150Z,91.57
2019-02-05T06:25:16.865Z,82.43
2019-02-05T06:27:46.447Z,78.67
2019-02-05T06:30:16.452Z,74.40
2019-02-05T06:32:45.950Z,88.73
2019-02-05T06:45:07.954Z,81.67
2019-02-05T06:47:38.352Z,82.87
2019-02-05T06:50:09.130Z,74.47
2019-02-05T06:52:38.602Z,68.27
2019-02-05T06:55:08.655Z,96.93
2019-02-05T06:57:38.130Z,75.13
2019-02-05T07:00:12.520Z,68.03
2019-02-05T07:02:42.134Z,82.40
2019-02-05T07:05:11.765Z,62.63
2019-02-05T07:07:41.416Z,68.43
2019-02-05T07:10:13.974Z,95.13
2019-02-05T07:12:43.727Z,67.37
2019-02-05T07:15:13.287Z,74.23
2019-02-05T07:17:49.967Z,49.20
2019-02-05T07:20:14.457Z,82.17
2019-02-05T07:22:44.112Z,76.00
2019-02-05T07:25:15.348Z,75.77
2019-02-05T07:27:44.833Z,81.13
2019-02-05T07:30:18.402Z,77.73
2019-02-05T07:32:47.990Z,53.97
2019-02-05T07:35:17.640Z,68.43
2019-02-05T07:37:47.157Z,65.57
2019-02-05T07:40:17.988Z,50.13
2019-02-05T07:42:47.470Z,63.40
2019-02-05T07:45:18.495Z,48.87
2019-02-05T07:47:47.989Z,49.50
2019-02-05T07:50:25.462Z,51.63
2019-02-05T07:52:54.955Z,61.53
2019-02-05T07:55:24.613Z,34.20
2019-02-05T07:57:54.194Z,60.73
2019-02-05T08:00:26.101Z,48.70
2019-02-05T08:02:55.629Z,39.00
2019-02-05T08:05:31.266Z,55.57
2019-02-05T08:08:01.118Z,49.00
2019-02-05T08:10:30.763Z,41.60
2019-02-05T08:13:00.324Z,52.37
2019-02-05T08:15:32.369Z,44.07
2019-02-05T08:18:02.020Z,47.63
2019-02-05T08:20:31.565Z,41.33
2019-02-05T08:23:01.101Z,41.23
2019-02-05T08:25:30.672Z,44.73
2019-02-05T08:28:00.500Z,52.13
2019-02-05T08:30:32.786Z,40.10
2019-02-05T08:33:02.273Z,43.53
2019-02-05T08:35:31.782Z,34.37
2019-02-05T08:38:01.401Z,43.27
2019-02-05T08:40:30.889Z,41.17
2019-02-05T08:43:00.523Z,41.67
2019-02-05T08:45:30.777Z,40.60
2019-02-05T08:48:00.365Z,31.67
2019-02-05T08:50:29.941Z,30.87
2019-02-05T08:52:59.401Z,42.17
2019-02-05T08:55:30.952Z,43.10
2019-02-05T08:58:02.673Z,37.00
2019-02-05T09:00:42.788Z,45.53
2019-02-05T09:03:12.324Z,38.13
2019-02-05T09:05:41.897Z,29.83
2019-02-05T09:08:11.485Z,48.07
2019-02-05T09:10:41.200Z,34.50
2019-02-05T09:13:10.900Z,37.00
2019-02-05T09:15:40.514Z,44.30
2019-02-05T09:18:10.115Z,38.93
2019-02-05T09:20:39.855Z,33.27
2019-02-05T09:23:09.347Z,41.33
2019-02-05T09:25:38.876Z,48.37
2019-02-05T09:28:08.354Z,42.47
2019-02-05T09:30:37.935Z,40.77
2019-02-05T09:33:10.204Z,45.67
2019-02-05T09:35:39.849Z,35.10
2019-02-05T09:38:09.499Z,38.27
2019-02-05T09:40:39.086Z,37.47
2019-02-05T09:43:08.656Z,33.10
2019-02-05T09:45:38.913Z,38.83
2019-02-05T09:48:08.580Z,44.47
2019-02-05T09:50:44.634Z,47.30
2019-02-05T09:53:09.524Z,36.17
2019-02-05T09:55:39.190Z,45.43
2019-02-05T09:58:08.796Z,38.40
2019-02-05T10:00:39.627Z,28.27
2019-02-05T10:03:09.279Z,30.40
2019-02-05T10:05:38.841Z,39.97
2019-02-05T10:08:08.403Z,36.07
2019-02-05T10:10:37.984Z,37.13
2019-02-05T10:13:08.284Z,37.77
2019-02-05T10:15:39.259Z,38.73
2019-02-05T10:18:10.701Z,33.47
2019-02-05T10:20:40.416Z,32.93
2019-02-05T10:23:10.096Z,38.20
2019-02-05T10:25:39.631Z,36.13
2019-02-05T10:28:09.152Z,31.57
2019-02-05T10:30:41.413Z,41.13
2019-02-05T10:33:11.141Z,34.40
2019-02-05T10:35:40.831Z,39.97
2019-02-05T10:38:10.537Z,31.93
2019-02-05T10:40:40.116Z,39.20
2019-02-05T10:43:09.710Z,38.17
2019-02-05T10:45:39.222Z,35.40
2019-02-05T10:48:10.153Z,35.63
2019-02-05T10:50:39.700Z,42.57
2019-02-05T10:53:09.395Z,38.47
2019-02-05T10:55:38.940Z,42.83
2019-02-05T10:58:09.330Z,37.27
2019-02-05T11:00:39.474Z,40.10
2019-02-05T11:03:09.753Z,26.17
2019-02-05T11:05:39.396Z,44.37
2019-02-05T11:08:09.646Z,39.77
2019-02-05T11:10:39.194Z,46.27
2019-02-05T11:13:08.726Z,42.73
2019-02-05T11:15:38.309Z,40.30
2019-02-05T11:18:09.731Z,30.67
2019-02-05T11:20:39.310Z,25.37
2019-02-05T11:23:08.933Z,43.13
2019-02-05T11:25:38.512Z,42.80
2019-02-05T11:28:08.059Z,42.40
2019-02-05T11:30:40.339Z,32.70
2019-02-05T11:33:09.822Z,43.33
2019-02-05T11:35:39.511Z,37.97
2019-02-05T11:38:10.263Z,35.87
2019-02-05T11:40:39.784Z,35.73
2019-02-05T11:43:09.377Z,32.70
2019-02-05T11:45:39.001Z,34.60
2019-02-05T11:48:16.182Z,39.73
2019-02-05T11:50:45.782Z,35.87
2019-02-05T11:53:15.616Z,47.77
2019-02-05T11:55:45.203Z,49.73
2019-02-05T11:58:15.832Z,49.50
2019-02-05T12:00:51.333Z,46.50
2019-02-05T12:03:21.212Z,41.73
2019-02-05T12:05:50.704Z,42.87
2019-02-05T12:08:20.322Z,53.90
2019-02-05T12:10:49.871Z,53.13
2019-02-05T12:13:19.397Z,51.83
2019-02-05T12:15:48.886Z,49.90
2019-02-05T12:18:18.481Z,40.70
2019-02-05T12:20:48.015Z,51.30
2019-02-05T12:23:17.630Z,51.43
2019-02-05T12:25:47.261Z,50.13
2019-02-05T12:28:16.840Z,45.20
2019-02-05T12:30:46.611Z,45.37
2019-02-05T12:33:16.168Z,39.30
2019-02-05T12:35:46.382Z,43.27
2019-02-05T12:38:15.880Z,55.70
2019-02-05T12:40:45.421Z,50.67
2019-02-05T12:43:14.978Z,44.20
2019-02-05T12:45:44.541Z,49.97
2019-02-05T12:48:14.118Z,45.80
2019-02-05T12:54:16.322Z,45.10
2019-02-05T12:56:45.954Z,48.63
2019-02-05T12:59:15.722Z,42.23
2019-02-05T13:01:45.343Z,60.53
2019-02-05T13:04:14.903Z,47.90
2019-02-05T13:06:44.431Z,55.50
2019-02-05T13:09:14.047Z,40.77
2019-02-05T13:11:43.616Z,51.13
2019-02-05T13:14:13.110Z,50.40
2019-02-05T13:16:42.652Z,67.90
2019-02-05T13:19:12.268Z,55.80
2019-02-05T13:21:41.831Z,50.33
2019-02-05T13:24:11.393Z,46.20
2019-02-05T13:26:40.965Z,40.57
2019-02-05T13:29:10.684Z,48.17
2019-02-05T13:31:40.256Z,43.93
2019-02-05T13:34:09.790Z,40.20
2019-02-05T13:36:41.834Z,41.70
2019-02-05T13:39:13.890Z,33.73
2019-02-05T13:41:43.549Z,25.37
2019-02-05T13:44:13.240Z,33.70
2019-02-05T13:46:42.844Z,33.63
2019-02-05T13:49:12.474Z,39.57
2019-02-05T13:51:41.987Z,43.00
2019-02-05T13:54:11.590Z,34.93
2019-02-05T13:56:44.133Z,35.83
2019-02-05T13:59:16.134Z,45.63
2019-02-05T14:01:45.703Z,29.90
2019-02-05T14:04:15.445Z,44.03
2019-02-05T14:06:44.967Z,46.23
2019-02-05T14:09:16.637Z,32.77
2019-02-05T14:11:46.237Z,43.23
2019-02-05T14:14:16.095Z,40.07
2019-02-05T14:16:45.795Z,40.43
2019-02-05T14:19:15.443Z,38.67
2019-02-05T14:21:48.051Z,40.07
2019-02-05T14:24:17.522Z,36.40
2019-02-05T14:26:47.216Z,49.10
2019-02-05T14:29:16.673Z,44.03
2019-02-05T14:31:46.214Z,37.33
2019-02-05T14:34:16.859Z,39.23
2019-02-05T14:36:46.525Z,33.93
2019-02-05T14:39:16.431Z,25.83
2019-02-05T14:41:46.033Z,35.87
2019-02-05T14:44:15.736Z,34.67
2019-02-05T14:46:45.190Z,31.03
2019-02-05T14:49:14.775Z,29.10
2019-02-05T14:51:44.264Z,36.27
2019-02-05T14:54:13.738Z,34.13
2019-02-05T14:56:43.349Z,41.27
2019-02-05T14:59:12.949Z,39.17
2019-02-05T15:01:43.420Z,33.87
2019-02-05T15:04:13.235Z,35.67
2019-02-05T15:06:43.378Z,44.90
2019-02-05T15:09:12.955Z,40.13
2019-02-05T15:11:42.506Z,38.87
2019-02-05T15:14:12.035Z,38.03
2019-02-05T15:16:41.656Z,40.83
2019-02-05T15:19:11.297Z,41.20
2019-02-05T15:21:40.808Z,36.27
2019-02-05T15:24:10.571Z,31.50
2019-02-05T15:26:40.165Z,42.80
2019-02-05T15:29:09.657Z,40.00
2019-02-05T15:31:39.422Z,37.67
2019-02-05T15:34:21.789Z,37.23
2019-02-05T15:36:52.174Z,46.33
2019-02-05T15:39:21.651Z,37.70
2019-02-05T15:41:51.219Z,36.27
2019-02-05T15:44:20.722Z,35.07
2019-02-05T15:46:50.426Z,41.10
2019-02-05T15:49:20.038Z,35.17
2019-02-05T15:51:49.695Z,37.47
2019-02-05T15:54:19.258Z,32.47
2019-02-05T15:56:48.830Z,25.37
2019-02-05T15:59:18.376Z,32.13
2019-02-05T16:01:48.086Z,29.63
2019-02-05T16:04:17.614Z,29.47
2019-02-05T16:06:47.252Z,45.00
2019-02-05T16:09:17.071Z,38.87
2019-02-05T16:11:47.062Z,41.20
2019-02-05T16:14:16.718Z,34.30
2019-02-05T16:16:46.360Z,25.80
2019-02-05T16:19:15.927Z,34.80
2019-02-05T16:21:45.572Z,37.57
2019-02-05T16:24:15.197Z,30.30
2019-02-05T16:26:44.868Z,44.20
2019-02-05T16:29:14.456Z,61.17
2019-02-05T16:31:43.928Z,37.40
2019-02-05T16:34:13.438Z,39.13
2019-02-05T16:36:43.042Z,37.13
2019-02-05T16:39:12.629Z,42.40
2019-02-05T16:41:42.376Z,38.70
2019-02-05T16:44:12.031Z,36.23
2019-02-05T16:46:41.784Z,32.40
2019-02-05T16:49:11.732Z,31.13
2019-02-05T16:51:41.210Z,45.60
2019-02-05T16:54:10.851Z,42.73
2019-02-05T16:56:41.097Z,47.37
2019-02-05T16:59:11.252Z,42.13
2019-02-05T17:01:40.720Z,41.47
2019-02-05T17:08:31.518Z,41.73
2019-02-05T17:11:01.147Z,42.80
2019-02-05T17:13:30.737Z,54.53
2019-02-05T17:16:00.325Z,43.27
2019-02-05T17:18:30.322Z,46.60
2019-02-05T17:20:59.827Z,52.20
2019-02-05T17:23:29.550Z,54.77
2019-02-05T17:25:59.166Z,39.13
2019-02-05T17:28:29.399Z,43.43
2019-02-05T17:30:59.287Z,63.43
2019-02-05T17:33:28.977Z,47.23
2019-02-05T17:35:58.577Z,47.70
2019-02-05T17:38:28.312Z,55.37
2019-02-05T17:40:57.987Z,46.73
2019-02-05T17:43:27.691Z,43.77
2019-02-05T17:45:57.285Z,42.97
2019-02-05T17:48:26.917Z,44.70
2019-02-05T17:54:29.087Z,46.03
2019-02-05T17:56:58.766Z,49.30
2019-02-05T17:59:28.375Z,47.23
2019-02-05T18:01:57.903Z,48.10
2019-02-05T18:04:27.509Z,41.57
2019-02-05T18:06:57.183Z,42.33
2019-02-05T18:09:26.681Z,52.67
2019-02-05T18:11:57.529Z,52.47
2019-02-05T18:14:27.185Z,57.47
2019-02-05T18:16:56.826Z,44.33
2019-02-05T18:19:27.139Z,42.87
2019-02-05T18:21:56.732Z,49.60
2019-02-05T18:24:26.379Z,49.47
2019-02-05T18:26:56.067Z,36.27
2019-02-05T18:29:25.657Z,41.00
2019-02-05T18:31:55.343Z,43.03
2019-02-05T18:34:24.940Z,54.73
2019-02-05T18:36:54.535Z,56.33
2019-02-05T18:39:24.423Z,52.00
2019-02-05T18:41:54.037Z,43.10
2019-02-05T18:44:23.636Z,48.10
2019-02-05T18:46:53.224Z,52.60
2019-02-05T18:49:22.885Z,41.83
2019-02-05T18:51:52.416Z,42.43
2019-02-05T18:54:21.903Z,44.97
2019-02-05T18:56:51.580Z,44.30
2019-02-05T18:59:21.198Z,63.83
2019-02-05T19:01:58.308Z,62.00
2019-02-05T19:08:09.516Z,46.90
2019-02-05T19:10:39.108Z,51.50
2019-02-05T19:13:08.708Z,52.57
2019-02-05T19:15:38.509Z,54.87
2019-02-05T19:18:08.827Z,45.60
2019-02-05T19:20:38.462Z,47.10
2019-02-05T19:23:09.353Z,43.83
2019-02-05T19:26:00.851Z,54.10
2019-02-05T19:28:32.938Z,56.67
2019-02-05T19:31:17.899Z,36.77
2019-02-05T19:33:47.404Z,59.10
2019-02-05T19:36:16.980Z,62.03
2019-02-05T19:38:46.544Z,43.93
2019-02-05T19:41:16.037Z,52.63
2019-02-05T19:43:45.692Z,55.97
2019-02-05T19:46:33.013Z,51.97
2019-02-05T19:49:21.719Z,48.07
2019-02-05T19:51:51.184Z,44.07
2019-02-05T19:54:20.857Z,49.70
2019-02-05T19:56:50.312Z,49.37
2019-02-05T19:59:20.079Z,52.57
2019-02-05T20:01:49.768Z,38.07
2019-02-05T20:04:19.471Z,57.30
2019-02-05T20:06:49.104Z,49.87
2019-02-05T20:09:18.613Z,55.23
2019-02-05T20:11:48.090Z,47.00
2019-02-05T20:14:26.601Z,52.93
2019-02-05T20:16:56.944Z,42.23
2019-02-05T20:19:26.711Z,44.73
2019-02-05T20:21:56.387Z,44.07
2019-02-05T20:24:25.921Z,38.10
2019-02-05T20:26:55.509Z,48.30
2019-02-05T20:29:25.441Z,39.97
2019-02-05T20:31:57.622Z,50.07
2019-02-05T20:34:27.233Z,39.53
2019-02-05T20:36:57.037Z,51.20
2019-02-05T20:39:27.034Z,47.47
2019-02-05T20:41:56.788Z,45.47
2019-02-05T20:44:26.336Z,40.90
2019-02-05T20:46:56.075Z,46.30
2019-02-05T20:49:26.003Z,49.73
2019-02-05T20:51:58.080Z,48.40
2019-02-05T20:54:27.621Z,45.77
2019-02-05T20:56:57.227Z,46.87
2019-02-05T20:59:30.151Z,36.60
2019-02-05T21:01:58.365Z,37.47
2019-02-05T21:04:47.990Z,45.87
2019-02-05T21:10:50.774Z,50.17
2019-02-05T21:13:20.265Z,49.30
2019-02-05T21:15:50.000Z,34.13
2019-02-05T21:18:19.726Z,53.47
2019-02-05T21:20:49.462Z,45.17
2019-02-05T21:23:19.147Z,41.33
2019-02-05T21:25:49.006Z,46.67
2019-02-05T21:28:18.615Z,44.87
2019-02-05T21:30:48.340Z,33.57
2019-02-05T21:33:18.998Z,50.53
2019-02-05T21:35:49.467Z,45.77
2019-02-05T21:38:19.550Z,47.17
2019-02-05T21:40:49.272Z,42.60
2019-02-05T21:43:18.944Z,47.23
2019-02-05T21:45:48.602Z,42.07
2019-02-05T21:48:18.202Z,37.27
2019-02-05T21:50:47.754Z,43.50
2019-02-05T21:53:17.451Z,34.90
2019-02-05T21:55:47.533Z,52.03
2019-02-05T21:58:17.146Z,42.20
2019-02-05T22:00:46.855Z,45.03
2019-02-05T22:03:16.429Z,37.80
2019-02-05T22:05:46.738Z,34.67
2019-02-05T22:08:16.709Z,38.17
2019-02-05T22:10:46.683Z,48.23
2019-02-05T22:13:16.595Z,40.03
2019-02-05T22:15:46.556Z,41.80
2019-02-05T22:18:16.432Z,47.50
2019-02-05T22:20:46.365Z,37.33
2019-02-05T22:23:16.635Z,46.57
2019-02-05T22:25:46.543Z,43.10
2019-02-05T22:28:16.476Z,40.20
2019-02-05T22:30:46.841Z,40.87
2019-02-05T22:33:17.048Z,48.20
2019-02-05T22:35:47.306Z,48.87
2019-02-05T22:38:17.179Z,46.67
2019-02-05T22:40:47.085Z,39.13
2019-02-05T22:43:17.023Z,44.73
2019-02-05T22:45:46.886Z,54.70
2019-02-05T22:48:16.874Z,34.80
2019-02-05T22:50:46.803Z,51.17
2019-02-05T22:53:16.663Z,43.87
2019-02-05T22:55:46.597Z,32.57
2019-02-05T22:58:16.426Z,50.33
2019-02-05T23:01:24.673Z,62.67
2019-02-05T23:04:12.963Z,51.33
2019-02-05T23:06:50.250Z,31.93
2019-02-05T23:10:02.893Z,42.37
2019-02-05T23:12:38.522Z,44.60
2019-02-05T23:15:23.197Z,41.40
2019-02-05T23:17:53.955Z,45.20
2019-02-05T23:20:24.224Z,40.40
2019-02-05T23:22:56.955Z,50.53
2019-02-05T23:25:25.654Z,34.37
2019-02-05T23:27:55.524Z,36.97
2019-02-05T23:30:28.132Z,44.23
2019-02-05T23:32:58.672Z,36.80
2019-02-05T23:35:28.518Z,34.33
2019-02-05T23:37:58.380Z,44.07
2019-02-05T23:40:28.118Z,41.17
2019-02-05T23:42:57.850Z,46.17
2019-02-05T23:45:27.671Z,38.43
2019-02-05T23:47:57.574Z,35.93
2019-02-05T23:50:27.570Z,38.13
2019-02-05T23:52:57.380Z,45.43
2019-02-05T23:55:27.275Z,38.27
2019-02-05T23:57:57.105Z,42.00
